createdAt,value
2023-01-30T00:01:45.085Z,100193.80
2023-01-30T00:04:17.045Z,100196.40
2023-01-30T00:06:46.209Z,100195.58
2023-01-30T00:09:15.607Z,100189.67
2023-01-30T00:11:44.645Z,100185.40
2023-01-30T00:14:13.556Z,100181.12
2023-01-30T00:16:42.398Z,100171.73
2023-01-30T00:19:11.623Z,100176.05
2023-01-30T00:21:40.455Z,100156.42
2023-01-30T00:24:09.620Z,100164.98
2023-01-30T00:26:38.514Z,100158.20
2023-01-30T00:29:07.963Z,100146.19
2023-01-30T00:31:37.460Z,100133.36
2023-01-30T00:34:06.292Z,100129.08
2023-01-30T00:36:37.183Z,100130.79
2023-01-30T00:39:06.381Z,100123.09
2023-01-30T00:41:50.202Z,100116.22
2023-01-30T00:44:37.667Z,100113.62
2023-01-30T00:47:08.344Z,100099.05
2023-01-30T00:49:38.173Z,100103.36
2023-01-30T00:52:07.328Z,100092.20
2023-01-30T00:54:40.843Z,100085.39
2023-01-30T00:57:09.805Z,100073.39
2023-01-30T00:59:38.715Z,100073.39
2023-01-30T01:02:07.565Z,100063.13
2023-01-30T01:04:42.742Z,100065.69
2023-01-30T01:07:15.913Z,100062.30
2023-01-30T01:09:45.292Z,100046.02
2023-01-30T01:12:14.375Z,100039.20
2023-01-30T01:14:47.171Z,100034.92
2023-01-30T01:17:16.095Z,100018.67
2023-01-30T01:19:45.104Z,100015.27
2023-01-30T01:22:13.993Z,100005.01
2023-01-30T01:24:42.939Z,99993.03
2023-01-30T01:27:11.954Z,99984.48
2023-01-30T01:29:42.596Z,99981.03
2023-01-30T01:32:12.083Z,99972.48
2023-01-30T01:34:42.112Z,99969.91
2023-01-30T01:37:11.324Z,99970.77
2023-01-30T01:39:58.539Z,99964.80
2023-01-30T01:42:34.168Z,99962.23
2023-01-30T01:45:15.545Z,99951.97
2023-01-30T01:47:49.839Z,99945.15
2023-01-30T01:50:22.678Z,99939.13
2023-01-30T01:52:54.448Z,99924.64
2023-01-30T01:55:29.011Z,99928.06
2023-01-30T01:58:03.734Z,99924.64
2023-01-30T02:00:33.398Z,99928.94
2023-01-30T02:03:07.942Z,99928.97
2023-01-30T02:05:42.811Z,99928.11
2023-01-30T02:08:18.008Z,99913.56
2023-01-30T02:10:54.679Z,99913.56
2023-01-30T02:13:26.118Z,99910.98
2023-01-30T02:15:59.969Z,99910.09
2023-01-30T02:18:31.111Z,99904.96
2023-01-30T02:21:43.488Z,99899.83
2023-01-30T02:24:39.909Z,99888.69
2023-01-30T02:27:26.888Z,99883.50
2023-01-30T02:30:23.477Z,99874.91
2023-01-30T02:33:06.969Z,99877.45
2023-01-30T02:35:47.373Z,99880.84
2023-01-30T02:38:31.469Z,99872.30
2023-01-30T02:41:11.583Z,99861.98
2023-01-30T02:43:52.371Z,99861.13
2023-01-30T02:46:26.320Z,99857.67
2023-01-30T02:49:02.122Z,99848.22
2023-01-30T02:51:35.004Z,99832.83
2023-01-30T02:54:07.980Z,99838.79
2023-01-30T02:56:49.610Z,99833.66
2023-01-30T02:59:27.721Z,99828.51
2023-01-30T03:02:32.738Z,99821.66
2023-01-30T03:05:18.314Z,99823.38
2023-01-30T03:07:59.772Z,99813.05
2023-01-30T03:10:37.252Z,99813.05
2023-01-30T03:13:17.126Z,99808.80
2023-01-30T03:15:52.291Z,99791.62
2023-01-30T03:18:22.596Z,99801.03
2023-01-30T03:20:52.543Z,99787.30
2023-01-30T03:23:22.408Z,99782.14
2023-01-30T03:25:51.933Z,99757.27
2023-01-30T03:28:21.991Z,99743.59
2023-01-30T03:30:51.951Z,99733.20
2023-01-30T03:33:21.212Z,99730.61
2023-01-30T03:35:52.612Z,99729.71
2023-01-30T03:38:21.909Z,99725.39
2023-01-30T03:40:52.782Z,99722.74
2023-01-30T03:43:22.039Z,99709.84
2023-01-30T03:45:51.052Z,99716.64
2023-01-30T03:48:20.091Z,99709.76
2023-01-30T03:50:49.935Z,99704.56
2023-01-30T03:53:19.240Z,99708.77
2023-01-30T03:55:48.275Z,99705.30
2023-01-30T03:58:19.114Z,99697.59
2023-01-30T04:00:49.496Z,99689.88
2023-01-30T04:03:19.075Z,99684.70
2023-01-30T04:05:48.086Z,99668.47
2023-01-30T04:08:17.516Z,99670.14
2023-01-30T04:10:46.468Z,99664.17
2023-01-30T04:13:15.922Z,99656.46
2023-01-30T04:15:44.991Z,99658.97
2023-01-30T04:18:33.496Z,99646.14
2023-01-30T04:21:11.078Z,99635.88
2023-01-30T04:23:42.484Z,99633.32
2023-01-30T04:26:13.639Z,99630.70
2023-01-30T04:28:44.572Z,99620.45
2023-01-30T04:31:19.652Z,99611.93
2023-01-30T04:34:21.346Z,99602.56
2023-01-30T04:36:51.888Z,99597.45
2023-01-30T04:39:22.201Z,99589.77
2023-01-30T04:41:52.120Z,99590.64
2023-01-30T04:44:21.634Z,99585.53
2023-01-30T04:47:18.638Z,99566.73
2023-01-30T04:49:47.939Z,99565.05
2023-01-30T04:52:17.925Z,99560.80
2023-01-30T04:54:46.933Z,99564.21
2023-01-30T04:57:17.407Z,99561.65
2023-01-30T04:59:46.507Z,99555.67
2023-01-30T05:02:16.911Z,99556.52
2023-01-30T05:04:48.751Z,99563.38
2023-01-30T05:07:19.657Z,99556.59
2023-01-30T05:09:51.589Z,99542.05
2023-01-30T05:12:20.720Z,99537.80
2023-01-30T05:14:49.618Z,99537.80
2023-01-30T05:17:18.606Z,99532.68
2023-01-30T05:19:47.843Z,99528.39
2023-01-30T05:22:16.905Z,99513.91
2023-01-30T05:24:46.029Z,99503.59
2023-01-30T05:27:14.985Z,99495.06
2023-01-30T05:29:45.153Z,99491.66
2023-01-30T05:32:15.443Z,99489.93
2023-01-30T05:34:44.828Z,99476.27
2023-01-30T05:37:14.761Z,99477.95
2023-01-30T05:39:43.636Z,99478.78
2023-01-30T05:42:12.492Z,99489.87
2023-01-30T05:44:41.550Z,99492.44
2023-01-30T05:47:10.540Z,99478.77
2023-01-30T05:49:39.724Z,99468.52
2023-01-30T05:52:09.133Z,99457.38
2023-01-30T05:54:38.398Z,99463.39
2023-01-30T05:57:07.408Z,99459.92
2023-01-30T05:59:36.581Z,99454.81
2023-01-30T06:02:06.131Z,99453.09
2023-01-30T06:04:35.638Z,99449.67
2023-01-30T06:07:07.404Z,99441.98
2023-01-30T06:09:36.590Z,99430.02
2023-01-30T06:12:08.110Z,99414.64
2023-01-30T06:14:37.285Z,99418.91
2023-01-30T06:17:06.522Z,99417.19
2023-01-30T06:19:35.936Z,99412.94
2023-01-30T06:22:06.007Z,99418.06
2023-01-30T06:24:35.009Z,99411.22
2023-01-30T06:27:04.584Z,99404.36
2023-01-30T06:29:34.195Z,99411.22
2023-01-30T06:32:03.376Z,99410.33
2023-01-30T06:34:33.821Z,99409.50
2023-01-30T06:37:03.007Z,99409.50
2023-01-30T06:39:32.875Z,99402.64
2023-01-30T06:42:02.218Z,99406.09
2023-01-30T06:44:32.028Z,99398.40
2023-01-30T06:47:01.052Z,99380.45
2023-01-30T06:49:29.936Z,99371.93
2023-01-30T06:51:59.923Z,99386.44
2023-01-30T06:54:29.070Z,99378.75
2023-01-30T06:56:58.285Z,99377.91
2023-01-30T06:59:29.207Z,99370.23
2023-01-30T07:01:58.860Z,99368.55
2023-01-30T07:04:28.243Z,99364.27
2023-01-30T07:06:57.615Z,99355.73
2023-01-30T07:09:28.718Z,99349.77
2023-01-30T07:11:59.110Z,99347.22
2023-01-30T07:14:28.554Z,99346.39
2023-01-30T07:16:57.633Z,99337.02
2023-01-30T07:19:29.191Z,99334.45
2023-01-30T07:21:58.497Z,99330.20
2023-01-30T07:24:28.568Z,99334.50
2023-01-30T07:26:57.556Z,99339.64
2023-01-30T07:29:28.974Z,99331.95
2023-01-30T07:31:58.493Z,99328.50
2023-01-30T07:34:28.857Z,99322.52
2023-01-30T07:36:57.986Z,99315.66
2023-01-30T07:39:28.746Z,99319.02
2023-01-30T07:41:59.941Z,99317.28
2023-01-30T07:44:29.211Z,99315.56
2023-01-30T07:46:58.369Z,99306.13
2023-01-30T07:49:28.791Z,99299.27
2023-01-30T07:51:57.800Z,99304.35
2023-01-30T07:54:29.248Z,99292.35
2023-01-30T07:56:59.756Z,99295.71
2023-01-30T07:59:28.734Z,99298.25
2023-01-30T08:01:58.263Z,99284.53
2023-01-30T08:04:39.452Z,99287.88
2023-01-30T08:07:08.389Z,99276.73
2023-01-30T08:09:38.807Z,99277.52
2023-01-30T08:12:07.806Z,99273.16
2023-01-30T08:14:37.876Z,99266.30
2023-01-30T08:17:12.610Z,99260.29
2023-01-30T08:19:41.804Z,99269.69
2023-01-30T08:22:13.318Z,99262.00
2023-01-30T08:24:43.224Z,99258.61
2023-01-30T08:27:12.215Z,99256.88
2023-01-30T08:29:41.413Z,99259.44
2023-01-30T08:32:10.905Z,99251.76
2023-01-30T08:34:40.203Z,99252.59
2023-01-30T08:37:09.136Z,99253.43
2023-01-30T08:39:38.273Z,99254.25
2023-01-30T08:42:07.257Z,99251.69
2023-01-30T08:44:36.262Z,99248.25
2023-01-30T08:47:05.838Z,99255.09
2023-01-30T08:49:35.404Z,99243.12
2023-01-30T08:52:05.033Z,99231.19
2023-01-30T08:54:34.225Z,99230.31
2023-01-30T08:57:03.472Z,99220.95
2023-01-30T08:59:34.031Z,99219.23
2023-01-30T09:02:03.913Z,99216.68
2023-01-30T09:04:33.315Z,99217.52
2023-01-30T09:07:02.835Z,99214.12
2023-01-30T09:09:32.467Z,99206.44
2023-01-30T09:12:01.536Z,99200.47
2023-01-30T09:14:34.245Z,99185.16
2023-01-30T09:17:03.441Z,99198.86
2023-01-30T09:19:37.111Z,99200.59
2023-01-30T09:22:07.432Z,99186.17
2023-01-30T09:24:37.272Z,99175.97
2023-01-30T09:27:06.405Z,99174.25
2023-01-30T09:29:35.888Z,99178.54
2023-01-30T09:32:05.921Z,99173.42
2023-01-30T09:34:35.277Z,99171.73
2023-01-30T09:37:07.735Z,99168.30
2023-01-30T09:39:37.362Z,99167.45
2023-01-30T09:42:43.257Z,99159.82
2023-01-30T09:45:36.775Z,99164.11
2023-01-30T09:48:18.112Z,99143.66
2023-01-30T09:51:09.723Z,99142.87
2023-01-30T09:54:01.061Z,99138.63
2023-01-30T09:56:35.738Z,99128.42
2023-01-30T09:59:07.254Z,99122.43
2023-01-30T10:01:48.828Z,99124.16
2023-01-30T10:04:27.831Z,99116.50
2023-01-30T10:07:05.198Z,99117.34
2023-01-30T10:09:43.516Z,99113.90
2023-01-30T10:12:28.257Z,99108.77
2023-01-30T10:15:14.917Z,99108.77
2023-01-30T10:17:55.272Z,99097.68
2023-01-30T10:20:35.914Z,99094.27
2023-01-30T10:23:40.768Z,99079.73
2023-01-30T10:26:13.573Z,99079.73
2023-01-30T10:29:06.072Z,99075.48
2023-01-30T10:31:44.461Z,99076.33
2023-01-30T10:34:19.629Z,99067.80
2023-01-30T10:36:55.898Z,99064.39
2023-01-30T10:39:49.611Z,99060.99
2023-01-30T10:42:32.273Z,99043.09
2023-01-30T10:45:11.608Z,99062.77
2023-01-30T10:47:56.254Z,99049.14
2023-01-30T10:50:29.316Z,99038.05
2023-01-30T10:53:10.048Z,99035.48
2023-01-30T10:55:45.753Z,99029.55
2023-01-30T10:58:25.946Z,99032.12
2023-01-30T11:01:00.229Z,99038.13
2023-01-30T11:03:35.805Z,99032.16
2023-01-30T11:06:10.981Z,99026.19
2023-01-30T11:08:40.234Z,99019.37
2023-01-30T11:11:29.550Z,99018.53
2023-01-30T11:14:07.104Z,99016.80
2023-01-30T11:16:44.713Z,99013.43
2023-01-30T11:19:20.370Z,99013.46
2023-01-30T11:21:53.975Z,99011.78
2023-01-30T11:24:29.901Z,99001.55
2023-01-30T11:27:12.715Z,98999.89
2023-01-30T11:29:42.479Z,99002.48
2023-01-30T11:32:22.243Z,98988.84
2023-01-30T11:35:11.865Z,98975.16
2023-01-30T11:37:43.682Z,98975.22
2023-01-30T11:40:27.543Z,98976.14
2023-01-30T11:43:04.990Z,98966.73
2023-01-30T11:45:40.941Z,98965.89
2023-01-30T11:48:33.846Z,98965.89
2023-01-30T11:51:09.833Z,98967.61
2023-01-30T11:53:44.957Z,98962.48
2023-01-30T11:56:23.101Z,98953.05
2023-01-30T11:58:58.386Z,98949.64
2023-01-30T12:01:35.472Z,98943.61
2023-01-30T12:04:11.857Z,98948.75
2023-01-30T12:06:42.934Z,98948.75
2023-01-30T12:09:33.285Z,98957.30
2023-01-30T12:12:02.835Z,98943.59
2023-01-30T12:14:44.319Z,98934.18
2023-01-30T12:17:22.500Z,98936.75
2023-01-30T12:20:03.171Z,98933.30
2023-01-30T12:22:38.176Z,98943.57
2023-01-30T12:25:17.855Z,98922.19
2023-01-30T12:27:56.138Z,98939.31
2023-01-30T12:30:34.513Z,98937.62
2023-01-30T12:33:06.252Z,98938.45
2023-01-30T12:35:50.282Z,98935.05
2023-01-30T12:38:33.779Z,98927.35
2023-01-30T12:41:19.059Z,98935.05
2023-01-30T12:44:07.153Z,98928.20
2023-01-30T12:46:55.051Z,98926.50
2023-01-30T12:49:43.979Z,98935.05
2023-01-30T12:52:33.648Z,98938.48
2023-01-30T12:55:16.402Z,98938.48
2023-01-30T12:57:52.034Z,98928.22
2023-01-30T13:00:29.029Z,98925.63
2023-01-30T13:03:14.842Z,98930.76
2023-01-30T13:05:53.845Z,98925.63
2023-01-30T13:08:39.907Z,98929.04
2023-01-30T13:11:22.986Z,98923.94
2023-01-30T13:13:57.830Z,98915.39
2023-01-30T13:16:36.546Z,98919.65
2023-01-30T13:19:13.028Z,98910.25
2023-01-30T13:21:47.009Z,98913.66
2023-01-30T13:24:22.367Z,98912.81
2023-01-30T13:26:57.890Z,98917.95
2023-01-30T13:29:37.918Z,98916.25
2023-01-30T13:32:14.928Z,98918.82
2023-01-30T13:34:48.313Z,98916.25
2023-01-30T13:37:19.362Z,98920.53
2023-01-30T13:39:52.510Z,98909.42
2023-01-30T13:42:33.642Z,98911.14
2023-01-30T13:45:06.636Z,98915.43
2023-01-30T13:47:50.917Z,98912.86
2023-01-30T13:50:34.316Z,98912.85
2023-01-30T13:53:08.541Z,98911.16
2023-01-30T13:55:47.617Z,98902.61
2023-01-30T13:58:34.083Z,98908.58
2023-01-30T14:01:04.719Z,98908.58
2023-01-30T14:03:34.893Z,98912.02
2023-01-30T14:06:32.881Z,98915.45
2023-01-30T14:09:17.604Z,98907.75
2023-01-30T14:11:48.911Z,98920.59
2023-01-30T14:14:37.746Z,98912.03
2023-01-30T14:17:15.417Z,98913.75
2023-01-30T14:19:53.988Z,98914.62
2023-01-30T14:22:42.058Z,98920.63
2023-01-30T14:25:43.365Z,98925.77
2023-01-30T14:28:51.391Z,98934.30
2023-01-30T14:31:54.539Z,98932.62
2023-01-30T14:34:44.548Z,98927.48
2023-01-30T14:37:50.855Z,98935.17
2023-01-30T14:40:36.765Z,98933.46
2023-01-30T14:43:39.878Z,98927.48
2023-01-30T14:46:54.470Z,98930.04
2023-01-30T14:49:35.402Z,98921.49
2023-01-30T14:52:23.741Z,98936.03
2023-01-30T14:54:59.636Z,98930.04
2023-01-30T14:57:34.253Z,98930.04
2023-01-30T15:00:19.286Z,98931.77
2023-01-30T15:02:55.824Z,98923.19
2023-01-30T15:05:36.421Z,98937.75
2023-01-30T15:08:16.322Z,98924.91
2023-01-30T15:11:10.597Z,98930.91
2023-01-30T15:14:02.549Z,98933.48
2023-01-30T15:17:09.347Z,98936.04
2023-01-30T15:19:57.923Z,98932.63
2023-01-30T15:22:48.405Z,98944.61
2023-01-30T15:25:34.472Z,98942.92
2023-01-30T15:28:35.535Z,98945.48
2023-01-30T15:31:21.006Z,98950.61
2023-01-30T15:33:55.139Z,98947.20
2023-01-30T15:36:35.634Z,98950.64
2023-01-30T15:39:19.364Z,98958.34
2023-01-30T15:41:49.447Z,98960.90
2023-01-30T15:44:47.941Z,98967.76
2023-01-30T15:47:40.094Z,98956.63
2023-01-30T15:50:11.553Z,98957.51
2023-01-30T15:52:44.619Z,98958.38
2023-01-30T15:55:20.354Z,98960.95
2023-01-30T15:57:53.447Z,98968.65
2023-01-30T16:00:30.492Z,98975.50
2023-01-30T16:03:02.046Z,98975.52
2023-01-30T16:05:31.985Z,98975.52
2023-01-30T16:08:19.828Z,98976.38
2023-01-30T16:10:50.215Z,98972.09
2023-01-30T16:13:23.900Z,98971.23
2023-01-30T16:16:02.142Z,98972.95
2023-01-30T16:18:52.143Z,98972.97
2023-01-30T16:21:33.745Z,98966.97
2023-01-30T16:24:17.002Z,98963.55
2023-01-30T16:26:51.690Z,98957.56
2023-01-30T16:29:28.481Z,98964.41
2023-01-30T16:32:00.104Z,98957.58
2023-01-30T16:34:32.979Z,98958.45
2023-01-30T16:37:07.535Z,98947.31
2023-01-30T16:39:38.260Z,98967.02
2023-01-30T16:42:29.231Z,98968.73
2023-01-30T16:45:42.705Z,98973.02
2023-01-30T16:48:30.882Z,98961.02
2023-01-30T16:51:16.368Z,98973.01
2023-01-30T16:54:02.700Z,98972.16
2023-01-30T16:56:36.153Z,98980.73
2023-01-30T16:59:07.259Z,98971.33
2023-01-30T17:01:40.434Z,98985.02
2023-01-30T17:04:21.595Z,98985.89
2023-01-30T17:06:55.518Z,98984.16
2023-01-30T17:09:44.312Z,98984.19
2023-01-30T17:12:42.832Z,98981.62
2023-01-30T17:15:31.308Z,98982.45
2023-01-30T17:18:06.225Z,98984.17
2023-01-30T17:20:54.941Z,98985.91
2023-01-30T17:23:36.370Z,98993.61
2023-01-30T17:26:26.693Z,98987.63
2023-01-30T17:28:59.894Z,98989.31
2023-01-30T17:31:43.789Z,98983.33
2023-01-30T17:34:17.413Z,98985.89
2023-01-30T17:36:52.327Z,98986.77
2023-01-30T17:39:29.775Z,98991.05
2023-01-30T17:42:10.569Z,98997.91
2023-01-30T17:44:45.106Z,99005.63
2023-01-30T17:47:26.776Z,99002.21
2023-01-30T17:50:02.771Z,98991.05
2023-01-30T17:52:36.182Z,98990.19
2023-01-30T17:55:13.710Z,98998.78
2023-01-30T17:57:50.679Z,99002.19
2023-01-30T18:00:29.137Z,99007.36
2023-01-30T18:03:07.321Z,99011.64
2023-01-30T18:08:18.424Z,99009.08
2023-01-30T18:10:54.517Z,99010.79
2023-01-30T18:13:31.162Z,99017.66
2023-01-30T18:16:26.402Z,99018.52
2023-01-30T18:18:56.792Z,99005.64
2023-01-30T18:21:28.228Z,99013.37
2023-01-30T18:23:57.070Z,99016.80
2023-01-30T18:26:27.210Z,99015.08
2023-01-30T18:28:56.586Z,99012.50
2023-01-30T18:31:28.590Z,99018.52
2023-01-30T18:33:58.511Z,99018.52
2023-01-30T18:36:29.345Z,99021.94
2023-01-30T18:38:58.292Z,99023.67
2023-01-30T18:41:28.599Z,99034.80
2023-01-30T18:44:00.395Z,99027.95
2023-01-30T18:46:32.206Z,99025.38
2023-01-30T18:49:01.758Z,99015.09
2023-01-30T18:51:33.970Z,99012.50
2023-01-30T18:54:03.457Z,99015.95
2023-01-30T18:56:35.348Z,99008.22
2023-01-30T18:59:06.013Z,99008.22
2023-01-30T19:01:42.029Z,99000.50
2023-01-30T19:04:12.167Z,99004.78
2023-01-30T19:06:45.357Z,99011.63
2023-01-30T19:09:21.257Z,99003.05
2023-01-30T19:12:13.961Z,99012.47
2023-01-30T19:14:47.934Z,99016.76
2023-01-30T19:17:24.143Z,99013.32
2023-01-30T19:20:18.216Z,99028.75
2023-01-30T19:23:02.809Z,99020.16
2023-01-30T19:25:40.182Z,99016.74
2023-01-30T19:28:14.772Z,99030.47
2023-01-30T19:30:51.576Z,99027.90
2023-01-30T19:33:31.789Z,99015.91
2023-01-30T19:36:15.722Z,99025.34
2023-01-30T19:38:52.498Z,99028.75
2023-01-30T19:41:30.799Z,99029.62
2023-01-30T19:44:09.086Z,99025.36
2023-01-30T19:46:41.917Z,99029.64
2023-01-30T19:49:17.771Z,99041.64
2023-01-30T19:51:52.585Z,99036.50
2023-01-30T19:54:31.440Z,99036.50
2023-01-30T19:57:20.517Z,99035.63
2023-01-30T19:59:53.235Z,99036.50
2023-01-30T20:02:31.214Z,99030.50
2023-01-30T20:05:07.343Z,99043.36
2023-01-30T20:07:45.459Z,99043.36
2023-01-30T20:10:22.554Z,99041.63
2023-01-30T20:13:04.069Z,99039.06
2023-01-30T20:15:48.653Z,99039.06
2023-01-30T20:18:29.808Z,99034.77
2023-01-30T20:21:12.672Z,99041.63
2023-01-30T20:23:46.850Z,99040.79
2023-01-30T20:26:20.538Z,99051.92
2023-01-30T20:28:54.223Z,99042.48
2023-01-30T20:31:30.629Z,99054.48
2023-01-30T20:34:09.290Z,99042.50
2023-01-30T20:36:39.128Z,99059.66
2023-01-30T20:39:09.255Z,99079.34
2023-01-30T20:41:38.938Z,99075.08
2023-01-30T20:44:11.359Z,99093.06
2023-01-30T20:46:42.399Z,99087.07
2023-01-30T20:49:14.514Z,99092.23
2023-01-30T20:51:44.810Z,99099.08
2023-01-30T20:54:14.792Z,99101.65
2023-01-30T20:56:46.021Z,99102.50
2023-01-30T20:59:17.368Z,99100.78
2023-01-30T21:01:46.473Z,99103.36
2023-01-30T21:04:17.225Z,99108.52
2023-01-30T21:06:47.174Z,99110.21
2023-01-30T21:09:18.426Z,99100.75
2023-01-30T21:11:48.104Z,99114.48
2023-01-30T21:14:17.474Z,99123.91
2023-01-30T21:16:47.084Z,99129.02
2023-01-30T21:19:17.510Z,99132.45
2023-01-30T21:21:50.202Z,99133.30
2023-01-30T21:24:21.971Z,99143.58
2023-01-30T21:26:51.388Z,99138.45
2023-01-30T21:29:23.543Z,99141.87
2023-01-30T21:31:52.992Z,99145.27
2023-01-30T21:34:22.660Z,99147.84
2023-01-30T21:37:06.136Z,99152.11
2023-01-30T21:39:54.384Z,99152.08
2023-01-30T21:42:41.650Z,99146.95
2023-01-30T21:45:11.111Z,99136.66
2023-01-30T21:47:42.228Z,99131.52
2023-01-30T21:50:13.236Z,99141.81
2023-01-30T21:52:42.327Z,99144.35
2023-01-30T21:55:11.700Z,99146.90
2023-01-30T21:57:41.702Z,99153.73
2023-01-30T22:00:15.904Z,99148.61
2023-01-30T22:02:43.981Z,99146.01
2023-01-30T22:05:12.928Z,99158.02
2023-01-30T22:07:42.109Z,99159.70
2023-01-30T22:10:12.416Z,99167.41
2023-01-30T22:12:42.280Z,99159.70
2023-01-30T22:15:12.722Z,99163.99
2023-01-30T22:17:42.126Z,99164.02
2023-01-30T22:20:13.452Z,99164.87
2023-01-30T22:22:42.648Z,99158.03
2023-01-30T22:25:12.616Z,99164.89
2023-01-30T22:27:42.008Z,99167.46
2023-01-30T22:30:14.542Z,99163.17
2023-01-30T22:32:43.543Z,99164.89
2023-01-30T22:35:12.600Z,99172.63
2023-01-30T22:37:41.879Z,99180.34
2023-01-30T22:40:12.880Z,99185.47
2023-01-30T22:42:48.760Z,99185.47
2023-01-30T22:47:46.227Z,99200.08
2023-01-30T22:50:16.852Z,99198.35
2023-01-30T22:52:48.812Z,99201.77
2023-01-30T22:55:18.471Z,99196.66
2023-01-30T22:57:48.446Z,99200.94
2023-01-30T23:00:19.778Z,99203.52
2023-01-30T23:02:49.135Z,99212.09
2023-01-30T23:05:19.063Z,99208.68
2023-01-30T23:07:49.026Z,99208.68
2023-01-30T23:10:18.529Z,99213.84
2023-01-30T23:13:05.890Z,99213.84
2023-01-30T23:15:39.065Z,99207.83
2023-01-30T23:18:28.614Z,99207.83
2023-01-30T23:20:57.693Z,99212.97
2023-01-30T23:23:28.633Z,99202.71
2023-01-30T23:26:01.041Z,99206.13
2023-01-30T23:28:31.158Z,99218.13
2023-01-30T23:31:06.966Z,99210.45
2023-01-30T23:33:36.555Z,99212.17
2023-01-30T23:36:08.280Z,99215.61
2023-01-30T23:38:38.872Z,99212.20
2023-01-30T23:41:11.905Z,99213.88
2023-01-30T23:43:42.732Z,99203.59
2023-01-30T23:46:17.269Z,99206.20
2023-01-30T23:48:48.363Z,99210.47
2023-01-30T23:51:20.476Z,99212.22
2023-01-30T23:53:50.320Z,99207.07
2023-01-30T23:56:22.147Z,99198.48
2023-01-30T23:58:51.354Z,99203.66
